Private Wetterstation Sandau
Wetterdaten: Sonntag, 17.03.2013
Datum Zeit Temp. A. Feuchte A. Luftdruck Regen Wind Richtung Richtung Taupunkt Windchill
17.03.2013 00:01 -1,4 C 67 % 1014,7 hPa 0,0 l/m 9,7 km/h (2 Bft) SO 135 -6,7 C -4,9 C
17.03.2013 00:06 -1,4 C 67 % 1014,5 hPa 0,0 l/m 6,8 km/h (2 Bft) O-SO 112 -6,7 C -4,0 C
17.03.2013 00:11 -1,4 C 67 % 1014,6 hPa 0,0 l/m 4,7 km/h (1 Bft) SO 135 -6,7 C -3,0 C
17.03.2013 00:16 -1,4 C 67 % 1014,6 hPa 0,0 l/m 13,7 km/h (3 Bft) SO 135 -6,7 C -5,9 C
17.03.2013 00:21 -1,4 C 67 % 1014,8 hPa 0,0 l/m 12,2 km/h (2 Bft) S-SO 157 -6,7 C -5,5 C
17.03.2013 00:26 -1,4 C 67 % 1014,7 hPa 0,0 l/m 11,5 km/h (2 Bft) SO 135 -6,7 C -5,4 C
17.03.2013 00:31 -1,4 C 68 % 1014,6 hPa 0,0 l/m 14,8 km/h (3 Bft) SO 135 -6,5 C -6,1 C
17.03.2013 00:36 -1,4 C 68 % 1014,8 hPa 0,0 l/m 8,3 km/h (2 Bft) S-SO 157 -6,5 C -4,5 C
17.03.2013 00:41 -1,4 C 68 % 1014,6 hPa 0,0 l/m 17,6 km/h (3 Bft) S-SO 157 -6,5 C -6,6 C
17.03.2013 00:46 -1,5 C 68 % 1014,8 hPa 0,0 l/m 6,1 km/h (2 Bft) S-SO 157 -6,6 C -3,8 C
17.03.2013 00:51 -1,5 C 68 % 1014,9 hPa 0,0 l/m 6,1 km/h (2 Bft) SO 135 -6,6 C -3,8 C
17.03.2013 00:56 -1,5 C 68 % 1014,6 hPa 0,0 l/m 9,4 km/h (2 Bft) S-SO 157 -6,6 C -4,9 C
17.03.2013 01:01 -1,5 C 68 % 1014,7 hPa 0,0 l/m 12,2 km/h (2 Bft) S-SO 157 -6,6 C -5,7 C
17.03.2013 01:06 -1,5 C 68 % 1014,9 hPa 0,0 l/m 8,3 km/h (2 Bft) O-SO 112 -6,6 C -4,6 C
17.03.2013 01:11 -1,5 C 68 % 1014,6 hPa 0,0 l/m 11,2 km/h (2 Bft) SO 135 -6,6 C -5,4 C
17.03.2013 01:16 -1,5 C 68 % 1014,7 hPa 0,0 l/m 14,8 km/h (3 Bft) S-SO 157 -6,6 C -6,2 C
17.03.2013 01:21 -1,6 C 68 % 1014,7 hPa 0,0 l/m 6,1 km/h (2 Bft) SO 135 -6,7 C -3,9 C
17.03.2013 01:26 -1,6 C 68 % 1014,5 hPa 0,0 l/m 10,8 km/h (2 Bft) S-SO 157 -6,7 C -5,4 C
17.03.2013 01:31 -1,6 C 69 % 1014,5 hPa 0,0 l/m 13,0 km/h (3 Bft) SO 135 -6,5 C -6,0 C
17.03.2013 01:36 -1,6 C 69 % 1014,6 hPa 0,0 l/m 12,2 km/h (2 Bft) SO 135 -6,5 C -5,8 C
17.03.2013 01:41 -1,6 C 69 % 1014,5 hPa 0,0 l/m 16,6 km/h (3 Bft) O-SO 112 -6,5 C -6,7 C
17.03.2013 01:46 -1,6 C 69 % 1014,4 hPa 0,0 l/m 16,9 km/h (3 Bft) SO 135 -6,5 C -6,7 C
17.03.2013 01:51 -1,6 C 69 % 1014,6 hPa 0,0 l/m 12,2 km/h (2 Bft) O 90 -6,5 C -5,8 C
17.03.2013 01:56 -1,6 C 69 % 1014,4 hPa 0,0 l/m 24,1 km/h (4 Bft) SO 135 -6,5 C -7,8 C
17.03.2013 02:01 -1,6 C 69 % 1014,4 hPa 0,0 l/m 14,0 km/h (3 Bft) S-SO 157 -6,5 C -6,2 C
17.03.2013 02:06 -1,6 C 69 % 1014,0 hPa 0,0 l/m 12,6 km/h (3 Bft) SO 135 -6,5 C -5,9 C
17.03.2013 02:11 -1,6 C 69 % 1013,9 hPa 0,0 l/m 16,9 km/h (3 Bft) SO 135 -6,5 C -6,7 C
17.03.2013 02:16 -1,7 C 69 % 1014,0 hPa 0,0 l/m 17,3 km/h (3 Bft) SO 135 -6,6 C -6,9 C
17.03.2013 02:21 -1,7 C 69 % 1014,0 hPa 0,0 l/m 25,6 km/h (4 Bft) SO 135 -6,6 C -8,2 C
17.03.2013 02:26 -1,7 C 69 % 1013,9 hPa 0,0 l/m 11,2 km/h (2 Bft) S-SO 157 -6,6 C -5,7 C
17.03.2013 02:31 -1,8 C 70 % 1013,8 hPa 0,0 l/m 9,7 km/h (2 Bft) SO 135 -6,5 C -5,4 C
17.03.2013 02:36 -1,8 C 70 % 1013,7 hPa 0,0 l/m 16,2 km/h (3 Bft) SO 135 -6,5 C -6,9 C
17.03.2013 02:41 -1,9 C 70 % 1013,7 hPa 0,0 l/m 19,1 km/h (3 Bft) S-SO 157 -6,6 C -7,5 C
17.03.2013 02:46 -1,9 C 70 % 1013,6 hPa 0,0 l/m 13,7 km/h (3 Bft) S-SO 157 -6,6 C -6,5 C
17.03.2013 02:51 -2,1 C 70 % 1013,6 hPa 0,0 l/m 7,6 km/h (2 Bft) O 90 -6,8 C -5,1 C
17.03.2013 02:56 -2,1 C 71 % 1013,6 hPa 0,0 l/m 12,6 km/h (3 Bft) O-SO 112 -6,6 C -6,5 C
17.03.2013 03:01 -2,1 C 71 % 1013,6 hPa 0,0 l/m 15,8 km/h (3 Bft) SO 135 -6,6 C -7,2 C
17.03.2013 03:06 -2,1 C 71 % 1013,5 hPa 0,0 l/m 19,4 km/h (3 Bft) SO 135 -6,6 C -7,8 C
17.03.2013 03:11 -2,1 C 71 % 1013,4 hPa 0,0 l/m 7,6 km/h (2 Bft) SO 135 -6,6 C -5,1 C
17.03.2013 03:16 -2,1 C 71 % 1013,4 hPa 0,0 l/m 14,8 km/h (3 Bft) S-SO 157 -6,6 C -7,0 C
17.03.2013 03:21 -2,2 C 71 % 1013,4 hPa 0,0 l/m 14,4 km/h (3 Bft) SO 135 -6,7 C -7,0 C
17.03.2013 03:26 -2,2 C 71 % 1013,5 hPa 0,0 l/m 9,4 km/h (2 Bft) O-NO 67 -6,7 C -5,8 C
17.03.2013 03:31 -2,2 C 71 % 1013,4 hPa 0,0 l/m 20,5 km/h (4 Bft) SO 135 -6,7 C -8,1 C
17.03.2013 03:36 -2,2 C 70 % 1013,3 hPa 0,0 l/m 9,7 km/h (2 Bft) O-SO 112 -6,9 C -5,9 C
17.03.2013 03:41 -2,2 C 70 % 1013,3 hPa 0,0 l/m 7,6 km/h (2 Bft) SO 135 -6,9 C -5,2 C
17.03.2013 03:46 -2,2 C 70 % 1013,3 hPa 0,0 l/m 14,8 km/h (3 Bft) S-SO 157 -6,9 C -7,1 C
17.03.2013 03:51 -2,2 C 70 % 1013,3 hPa 0,0 l/m 5,0 km/h (1 Bft) SO 135 -6,9 C -4,1 C
17.03.2013 03:56 -2,4 C 71 % 1013,3 hPa 0,0 l/m 9,0 km/h (2 Bft) O-SO 112 -6,9 C -5,9 C
17.03.2013 04:01 -2,4 C 70 % 1013,2 hPa 0,0 l/m 12,2 km/h (2 Bft) S-SO 157 -7,1 C -6,8 C
17.03.2013 04:06 -2,4 C 71 % 1013,1 hPa 0,0 l/m 11,5 km/h (2 Bft) SO 135 -6,9 C -6,6 C
17.03.2013 04:11 -2,4 C 70 % 1013,1 hPa 0,0 l/m 9,0 km/h (2 Bft) SO 135 -7,1 C -5,9 C
17.03.2013 04:16 -2,4 C 71 % 1013,0 hPa 0,0 l/m 10,4 km/h (2 Bft) O-NO 67 -6,9 C -6,3 C
17.03.2013 04:21 -2,5 C 71 % 1013,0 hPa 0,0 l/m 15,8 km/h (3 Bft) S-SO 157 -7,0 C -7,7 C
17.03.2013 04:26 -2,6 C 71 % 1012,9 hPa 0,0 l/m 7,2 km/h (2 Bft) O-SO 112 -7,1 C -5,5 C
17.03.2013 04:31 -2,6 C 71 % 1012,8 hPa 0,0 l/m 10,8 km/h (2 Bft) S-SO 157 -7,1 C -6,6 C
17.03.2013 04:36 -2,6 C 71 % 1012,5 hPa 0,0 l/m 8,3 km/h (2 Bft) S-SO 157 -7,1 C -5,9 C
17.03.2013 04:41 -2,6 C 71 % 1012,5 hPa 0,0 l/m 12,6 km/h (3 Bft) O-SO 112 -7,1 C -7,1 C
17.03.2013 04:46 -2,7 C 71 % 1012,5 hPa 0,0 l/m 9,4 km/h (2 Bft) S-SO 157 -7,2 C -6,4 C
17.03.2013 04:51 -2,7 C 71 % 1012,5 hPa 0,0 l/m 5,8 km/h (2 Bft) S-SO 157 -7,2 C -5,0 C
17.03.2013 04:56 -2,7 C 71 % 1012,4 hPa 0,0 l/m 10,8 km/h (2 Bft) O-NO 67 -7,2 C -6,8 C
17.03.2013 05:01 -2,7 C 71 % 1012,4 hPa 0,0 l/m 19,1 km/h (3 Bft) O-NO 67 -7,2 C -8,5 C
17.03.2013 05:06 -2,7 C 71 % 1012,4 hPa 0,0 l/m 5,8 km/h (2 Bft) O-SO 112 -7,2 C -5,0 C
17.03.2013 05:11 -2,7 C 71 % 1012,2 hPa 0,0 l/m 6,1 km/h (2 Bft) SO 135 -7,2 C -5,2 C
17.03.2013 05:16 -2,8 C 71 % 1012,1 hPa 0,0 l/m 10,4 km/h (2 Bft) S-SO 157 -7,3 C -6,8 C
17.03.2013 05:21 -2,8 C 71 % 1012,1 hPa 0,0 l/m 15,8 km/h (3 Bft) S-SO 157 -7,3 C -8,0 C
17.03.2013 05:26 -2,9 C 71 % 1012,1 hPa 0,0 l/m 11,9 km/h (2 Bft) SO 135 -7,4 C -7,3 C
17.03.2013 05:31 -2,9 C 71 % 1012,1 hPa 0,0 l/m 9,7 km/h (2 Bft) O-SO 112 -7,4 C -6,7 C
17.03.2013 05:36 -3,0 C 71 % 1012,1 hPa 0,0 l/m 15,5 km/h (3 Bft) S-SO 157 -7,5 C -8,2 C
17.03.2013 05:41 -3,1 C 71 % 1012,1 hPa 0,0 l/m 11,9 km/h (2 Bft) O 90 -7,6 C -7,5 C
17.03.2013 05:46 -3,1 C 71 % 1012,1 hPa 0,0 l/m 6,1 km/h (2 Bft) SO 135 -7,6 C -5,6 C
17.03.2013 05:51 -3,1 C 71 % 1011,9 hPa 0,0 l/m 6,5 km/h (2 Bft) SO 135 -7,6 C -5,8 C
17.03.2013 05:56 -3,1 C 71 % 1011,9 hPa 0,0 l/m 5,4 km/h (1 Bft) SO 135 -7,6 C -5,3 C
17.03.2013 06:01 -3,2 C 71 % 1012,1 hPa 0,0 l/m 7,9 km/h (2 Bft) O 90 -7,7 C -6,5 C
17.03.2013 06:06 -3,2 C 71 % 1012,0 hPa 0,0 l/m 14,0 km/h (3 Bft) SO 135 -7,7 C -8,1 C
17.03.2013 06:11 -3,2 C 71 % 1012,0 hPa 0,0 l/m 8,6 km/h (2 Bft) O 90 -7,7 C -6,7 C
17.03.2013 06:16 -3,2 C 71 % 1012,0 hPa 0,0 l/m 8,3 km/h (2 Bft) O-SO 112 -7,7 C -6,6 C
17.03.2013 06:21 -3,2 C 71 % 1011,9 hPa 0,0 l/m 7,2 km/h (2 Bft) SO 135 -7,7 C -6,2 C
17.03.2013 06:26 -3,2 C 71 % 1012,0 hPa 0,0 l/m 9,7 km/h (2 Bft) SO 135 -7,7 C -7,0 C
17.03.2013 06:31 -3,2 C 71 % 1012,0 hPa 0,0 l/m 19,8 km/h (3 Bft) SO 135 -7,7 C -9,2 C
17.03.2013 06:36 -3,2 C 71 % 1011,9 hPa 0,0 l/m 15,8 km/h (3 Bft) SO 135 -7,7 C -8,5 C
17.03.2013 06:41 -3,1 C 71 % 1012,0 hPa 0,0 l/m 15,5 km/h (3 Bft) O-SO 112 -7,6 C -8,3 C
17.03.2013 06:46 -3,1 C 71 % 1012,0 hPa 0,0 l/m 16,9 km/h (3 Bft) SO 135 -7,6 C -8,6 C
17.03.2013 06:51 -3,1 C 71 % 1012,0 hPa 0,0 l/m 15,5 km/h (3 Bft) SO 135 -7,6 C -8,3 C
17.03.2013 06:56 -3,1 C 71 % 1011,8 hPa 0,0 l/m 5,0 km/h (1 Bft) SO 135 -7,6 C -5,1 C
17.03.2013 07:01 -3,1 C 70 % 1011,8 hPa 0,0 l/m 10,1 km/h (2 Bft) S-SO 157 -7,8 C -7,0 C
17.03.2013 07:06 -3,1 C 70 % 1011,7 hPa 0,0 l/m 19,1 km/h (3 Bft) SO 135 -7,8 C -9,0 C
17.03.2013 07:11 -3,1 C 70 % 1011,8 hPa 0,0 l/m 15,5 km/h (3 Bft) SO 135 -7,8 C -8,3 C
17.03.2013 07:16 -3,1 C 70 % 1011,8 hPa 0,0 l/m 19,1 km/h (3 Bft) SO 135 -7,8 C -9,0 C
17.03.2013 07:21 -3,0 C 71 % 1011,8 hPa 0,0 l/m 8,6 km/h (2 Bft) O-SO 112 -7,5 C -6,5 C
17.03.2013 07:26 -3,1 C 71 % 1011,8 hPa 0,0 l/m 6,8 km/h (2 Bft) O-SO 112 -7,6 C -5,9 C
17.03.2013 07:31 -3,0 C 70 % 1011,7 hPa 0,0 l/m 6,1 km/h (2 Bft) O-SO 112 -7,7 C -5,5 C
17.03.2013 07:36 -3,0 C 70 % 1011,7 hPa 0,0 l/m 7,2 km/h (2 Bft) S-SO 157 -7,7 C -6,0 C
17.03.2013 07:41 -2,9 C 70 % 1011,8 hPa 0,0 l/m 14,0 km/h (3 Bft) SO 135 -7,6 C -7,8 C
17.03.2013 07:46 -2,7 C 70 % 1011,8 hPa 0,0 l/m 14,0 km/h (3 Bft) O-SO 112 -7,4 C -7,5 C
17.03.2013 07:51 -2,7 C 70 % 1011,7 hPa 0,0 l/m 13,7 km/h (3 Bft) O-SO 112 -7,4 C -7,5 C
17.03.2013 07:56 -2,6 C 69 % 1011,7 hPa 0,0 l/m 14,4 km/h (3 Bft) SO 135 -7,5 C -7,5 C
17.03.2013 08:01 -2,4 C 69 % 1011,7 hPa 0,0 l/m 15,8 km/h (3 Bft) SO 135 -7,3 C -7,5 C
17.03.2013 08:06 -2,4 C 68 % 1011,8 hPa 0,0 l/m 12,2 km/h (2 Bft) SO 135 -7,5 C -6,8 C
17.03.2013 08:11 -2,2 C 68 % 1011,7 hPa 0,0 l/m 23,0 km/h (4 Bft) SO 135 -7,3 C -8,5 C
17.03.2013 08:16 -2,1 C 67 % 1011,6 hPa 0,0 l/m 10,8 km/h (2 Bft) S-SO 157 -7,4 C -6,0 C
17.03.2013 08:21 -1,9 C 67 % 1011,6 hPa 0,0 l/m 13,3 km/h (3 Bft) SO 135 -7,2 C -6,4 C
17.03.2013 08:26 -1,9 C 67 % 1011,6 hPa 0,0 l/m 16,9 km/h (3 Bft) S-SO 157 -7,2 C -7,1 C
17.03.2013 08:31 -1,8 C 67 % 1011,7 hPa 0,0 l/m 14,8 km/h (3 Bft) SO 135 -7,1 C -6,6 C
17.03.2013 08:36 -1,7 C 66 % 1011,7 hPa 0,0 l/m 11,2 km/h (2 Bft) O-SO 112 -7,2 C -5,7 C
17.03.2013 08:41 -1,6 C 66 % 1011,6 hPa 0,0 l/m 19,8 km/h (3 Bft) SO 135 -7,1 C -7,2 C
17.03.2013 08:46 -1,5 C 66 % 1011,3 hPa 0,0 l/m 20,9 km/h (4 Bft) S-SO 157 -7,0 C -7,3 C
17.03.2013 08:51 -1,2 C 66 % 1011,4 hPa 0,0 l/m 17,6 km/h (3 Bft) SO 135 -6,7 C -6,4 C
17.03.2013 08:56 -1,0 C 65 % 1011,5 hPa 0,0 l/m 13,7 km/h (3 Bft) S-SO 157 -6,7 C -5,4 C
17.03.2013 09:01 -0,9 C 64 % 1011,6 hPa 0,0 l/m 13,3 km/h (3 Bft) SO 135 -6,8 C -5,2 C
17.03.2013 09:06 -0,9 C 64 % 1011,3 hPa 0,0 l/m 21,6 km/h (4 Bft) SO 135 -6,8 C -6,6 C
17.03.2013 09:11 -0,7 C 64 % 1011,4 hPa 0,0 l/m 11,2 km/h (2 Bft) SO 135 -6,6 C -4,5 C
17.03.2013 09:16 -0,7 C 64 % 1011,3 hPa 0,0 l/m 18,0 km/h (3 Bft) S-SO 157 -6,6 C -5,8 C
17.03.2013 09:21 -0,6 C 63 % 1011,5 hPa 0,0 l/m 14,0 km/h (3 Bft) O-NO 67 -6,8 C -5,0 C
17.03.2013 09:26 -0,5 C 63 % 1011,3 hPa 0,0 l/m 7,9 km/h (2 Bft) O-SO 112 -6,7 C -3,3 C
17.03.2013 09:31 -0,2 C 62 % 1011,3 hPa 0,0 l/m 16,9 km/h (3 Bft) SO 135 -6,6 C -5,0 C
17.03.2013 09:36 0,1 C 62 % 1011,4 hPa 0,0 l/m 11,9 km/h (2 Bft) SO 135 -6,3 C -3,7 C
17.03.2013 09:41 0,4 C 61 % 1011,2 hPa 0,0 l/m 16,6 km/h (3 Bft) S-SO 157 -6,2 C -4,2 C
17.03.2013 09:46 0,5 C 59 % 1011,3 hPa 0,0 l/m 16,6 km/h (3 Bft) O-SO 112 -6,6 C -4,1 C
17.03.2013 09:51 0,5 C 58 % 1011,1 hPa 0,0 l/m 14,0 km/h (3 Bft) SO 135 -6,8 C -3,6 C
17.03.2013 09:56 0,6 C 58 % 1011,0 hPa 0,0 l/m 21,2 km/h (4 Bft) S-SO 157 -6,7 C -4,7 C
17.03.2013 10:01 0,7 C 58 % 1010,9 hPa 0,0 l/m 25,9 km/h (4 Bft) SO 135 -6,6 C -5,1 C
17.03.2013 10:06 0,9 C 57 % 1010,7 hPa 0,0 l/m 9,0 km/h (2 Bft) SO 135 -6,6 C -2,0 C
17.03.2013 10:11 1,1 C 57 % 1010,9 hPa 0,0 l/m 10,1 km/h (2 Bft) SO 135 -6,4 C -2,0 C
17.03.2013 10:16 1,3 C 57 % 1010,8 hPa 0,0 l/m 19,4 km/h (3 Bft) SO 135 -6,3 C -3,5 C
17.03.2013 10:21 1,3 C 56 % 1010,9 hPa 0,0 l/m 15,8 km/h (3 Bft) SO 135 -6,5 C -3,0 C
17.03.2013 10:26 1,3 C 56 % 1010,9 hPa 0,0 l/m 12,6 km/h (3 Bft) SO 135 -6,5 C -2,4 C
17.03.2013 10:31 1,3 C 55 % 1010,8 hPa 0,0 l/m 17,3 km/h (3 Bft) SO 135 -6,7 C -3,2 C
17.03.2013 10:36 1,2 C 56 % 1010,6 hPa 0,0 l/m 9,7 km/h (2 Bft) O-SO 112 -6,6 C -1,8 C
17.03.2013 10:41 1,1 C 56 % 1010,6 hPa 0,0 l/m 9,4 km/h (2 Bft) O 90 -6,7 C -1,8 C
17.03.2013 10:46 1,2 C 57 % 1010,7 hPa 0,0 l/m 16,9 km/h (3 Bft) SO 135 -6,4 C -3,3 C
17.03.2013 10:51 1,3 C 56 % 1010,6 hPa 0,0 l/m 14,0 km/h (3 Bft) O-NO 67 -6,5 C -2,6 C
17.03.2013 10:56 1,4 C 55 % 1010,6 hPa 0,0 l/m 11,2 km/h (2 Bft) O-SO 112 -6,6 C -1,9 C
17.03.2013 11:01 1,4 C 55 % 1010,4 hPa 0,0 l/m 12,2 km/h (2 Bft) S-SO 157 -6,6 C -2,1 C
17.03.2013 11:06 1,3 C 55 % 1010,7 hPa 0,0 l/m 14,8 km/h (3 Bft) O 90 -6,7 C -2,8 C
17.03.2013 11:11 1,3 C 55 % 1010,6 hPa 0,0 l/m 16,9 km/h (3 Bft) SO 135 -6,7 C -3,1 C
17.03.2013 11:16 1,3 C 56 % 1010,5 hPa 0,0 l/m 7,2 km/h (2 Bft) S-SO 157 -6,5 C -1,0 C
17.03.2013 11:21 1,3 C 56 % 1010,4 hPa 0,0 l/m 22,0 km/h (4 Bft) O-SO 112 -6,5 C -3,9 C
17.03.2013 11:26 1,3 C 55 % 1010,3 hPa 0,0 l/m 16,2 km/h (3 Bft) O 90 -6,7 C -3,0 C
17.03.2013 11:31 1,5 C 56 % 1010,3 hPa 0,0 l/m 9,0 km/h (2 Bft) O-SO 112 -6,3 C -1,3 C
17.03.2013 11:36 1,5 C 55 % 1010,3 hPa 0,0 l/m 8,3 km/h (2 Bft) SO 135 -6,5 C -1,1 C
17.03.2013 11:41 1,6 C 55 % 1010,2 hPa 0,0 l/m 15,1 km/h (3 Bft) SO 135 -6,4 C -2,5 C
17.03.2013 11:46 1,6 C 56 % 1010,2 hPa 0,0 l/m 26,3 km/h (4 Bft) SO 135 -6,2 C -4,0 C
17.03.2013 11:51 1,7 C 54 % 1010,1 hPa 0,0 l/m 20,5 km/h (4 Bft) S-SO 157 -6,6 C -3,2 C
17.03.2013 11:56 1,6 C 55 % 1009,9 hPa 0,0 l/m 15,5 km/h (3 Bft) O-SO 112 -6,4 C -2,5 C
17.03.2013 12:01 1,7 C 54 % 1009,8 hPa 0,0 l/m 17,3 km/h (3 Bft) S-SO 157 -6,6 C -2,7 C
17.03.2013 12:06 1,7 C 54 % 1009,8 hPa 0,0 l/m 12,6 km/h (3 Bft) SO 135 -6,6 C -1,9 C
17.03.2013 12:11 1,8 C 54 % 1009,8 hPa 0,0 l/m 7,9 km/h (2 Bft) O-SO 112 -6,5 C -0,6 C
17.03.2013 12:16 1,8 C 54 % 1009,9 hPa 0,0 l/m 12,2 km/h (2 Bft) O 90 -6,5 C -1,7 C
17.03.2013 12:21 1,9 C 53 % 1009,9 hPa 0,0 l/m 20,5 km/h (4 Bft) SO 135 -6,6 C -2,9 C
17.03.2013 12:26 1,8 C 53 % 1009,9 hPa 0,0 l/m 16,6 km/h (3 Bft) SO 135 -6,7 C -2,5 C
17.03.2013 12:31 1,8 C 53 % 1009,9 hPa 0,0 l/m 28,1 km/h (4 Bft) SO 135 -6,7 C -3,9 C
17.03.2013 12:36 1,9 C 54 % 1009,8 hPa 0,0 l/m 5,4 km/h (1 Bft) O-SO 112 -6,4 C 0,4 C
17.03.2013 12:41 2,1 C 54 % 1009,7 hPa 0,0 l/m 18,0 km/h (3 Bft) O-SO 112 -6,2 C -2,3 C
17.03.2013 12:46 2,3 C 53 % 1009,7 hPa 0,0 l/m 15,5 km/h (3 Bft) SO 135 -6,3 C -1,7 C
17.03.2013 12:51 2,5 C 52 % 1009,6 hPa 0,0 l/m 18,4 km/h (3 Bft) S-SO 157 -6,3 C -1,9 C
17.03.2013 12:56 2,8 C 52 % 1009,6 hPa 0,0 l/m 27,0 km/h (4 Bft) S-SO 157 -6,1 C -2,5 C
17.03.2013 13:01 2,9 C 52 % 1009,5 hPa 0,0 l/m 23,0 km/h (4 Bft) O-SO 112 -6,0 C -2,0 C
17.03.2013 13:06 3,0 C 52 % 1009,3 hPa 0,0 l/m 8,3 km/h (2 Bft) SO 135 -5,9 C 0,7 C
17.03.2013 13:11 3,1 C 51 % 1009,3 hPa 0,0 l/m 23,4 km/h (4 Bft) SO 135 -6,0 C -1,7 C
17.03.2013 13:16 3,1 C 51 % 1009,2 hPa 0,0 l/m 5,0 km/h (1 Bft) SO 135 -6,0 C 1,9 C
17.03.2013 13:21 3,3 C 51 % 1009,3 hPa 0,0 l/m 9,0 km/h (2 Bft) S-SO 157 -5,8 C 0,9 C
17.03.2013 13:26 3,4 C 51 % 1009,2 hPa 0,0 l/m 18,0 km/h (3 Bft) SO 135 -5,8 C -0,7 C
17.03.2013 13:31 3,3 C 51 % 1009,0 hPa 0,0 l/m 10,4 km/h (2 Bft) SO 135 -5,8 C 0,5 C
17.03.2013 13:36 3,2 C 52 % 1008,8 hPa 0,0 l/m 22,0 km/h (4 Bft) O-SO 112 -5,7 C -1,5 C
17.03.2013 13:41 3,0 C 52 % 1008,6 hPa 0,0 l/m 25,2 km/h (4 Bft) O 90 -5,9 C -2,1 C
17.03.2013 13:46 3,0 C 52 % 1008,5 hPa 0,0 l/m 20,2 km/h (4 Bft) SO 135 -5,9 C -1,5 C
17.03.2013 13:51 3,1 C 52 % 1008,6 hPa 0,0 l/m 20,9 km/h (4 Bft) O-SO 112 -5,8 C -1,4 C
17.03.2013 13:56 3,1 C 52 % 1008,4 hPa 0,0 l/m 27,7 km/h (4 Bft) SO 135 -5,8 C -2,2 C
17.03.2013 14:01 3,1 C 52 % 1008,4 hPa 0,0 l/m 13,3 km/h (3 Bft) S-SO 157 -5,8 C -0,3 C
17.03.2013 14:06 3,1 C 52 % 1008,4 hPa 0,0 l/m 24,1 km/h (4 Bft) O 90 -5,8 C -1,8 C
17.03.2013 14:11 3,1 C 52 % 1008,3 hPa 0,0 l/m 18,0 km/h (3 Bft) O-NO 67 -5,8 C -1,1 C
17.03.2013 14:16 3,2 C 52 % 1008,2 hPa 0,0 l/m 8,6 km/h (2 Bft) O 90 -5,7 C 0,9 C
17.03.2013 14:21 3,4 C 52 % 1008,0 hPa 1,0 l/m 10,1 km/h (2 Bft) O 90 -5,5 C 0,7 C
17.03.2013 14:26 3,5 C 51 % 1008,0 hPa 0,0 l/m 29,5 km/h (5 Bft) O-SO 112 -5,7 C -1,9 C
17.03.2013 14:31 3,4 C 51 % 1008,0 hPa 0,0 l/m 8,6 km/h (2 Bft) O-NO 67 -5,8 C 1,1 C
17.03.2013 14:36 3,4 C 51 % 1008,0 hPa 0,0 l/m 15,8 km/h (3 Bft) SO 135 -5,8 C -0,4 C
17.03.2013 14:41 3,3 C 51 % 1007,9 hPa 0,0 l/m 19,8 km/h (3 Bft) S-SO 157 -5,8 C -1,1 C
17.03.2013 14:46 3,1 C 52 % 1007,8 hPa 0,0 l/m 19,1 km/h (3 Bft) S-SO 157 -5,8 C -1,2 C
17.03.2013 14:51 3,1 C 51 % 1007,8 hPa 0,0 l/m 17,6 km/h (3 Bft) S-SO 157 -6,0 C -1,0 C
17.03.2013 14:56 3,0 C 51 % 1007,6 hPa 0,0 l/m 20,9 km/h (4 Bft) SO 135 -6,1 C -1,6 C
17.03.2013 15:01 2,9 C 52 % 1007,5 hPa 0,0 l/m 11,2 km/h (2 Bft) O-SO 112 -6,0 C -0,1 C
17.03.2013 15:06 2,9 C 51 % 1007,5 hPa 0,0 l/m 13,0 km/h (3 Bft) S-SO 157 -6,2 C -0,5 C
17.03.2013 15:11 2,7 C 51 % 1007,3 hPa 0,0 l/m 13,0 km/h (3 Bft) O-SO 112 -6,4 C -0,7 C
17.03.2013 15:16 2,6 C 51 % 1007,4 hPa 0,0 l/m 8,3 km/h (2 Bft) O-SO 112 -6,5 C 0,2 C
17.03.2013 15:21 2,6 C 52 % 1007,3 hPa 0,0 l/m 15,8 km/h (3 Bft) O-SO 112 -6,2 C -1,3 C
17.03.2013 15:26 2,6 C 51 % 1007,3 hPa 0,0 l/m 12,2 km/h (2 Bft) SO 135 -6,5 C -0,7 C
17.03.2013 15:31 2,5 C 51 % 1007,2 hPa 0,0 l/m 13,7 km/h (3 Bft) SO 135 -6,6 C -1,1 C
17.03.2013 15:36 2,4 C 51 % 1007,0 hPa 0,0 l/m 11,2 km/h (2 Bft) S 180 -6,7 C -0,7 C
17.03.2013 15:41 2,4 C 51 % 1007,1 hPa 0,0 l/m 6,5 km/h (2 Bft) S-SO 157 -6,7 C 0,6 C
17.03.2013 15:46 2,4 C 50 % 1007,1 hPa 0,0 l/m 10,1 km/h (2 Bft) O 90 -6,9 C -0,5 C
17.03.2013 15:51 2,4 C 51 % 1007,3 hPa 0,0 l/m 11,2 km/h (2 Bft) S-SO 157 -6,7 C -0,7 C
17.03.2013 15:56 2,4 C 51 % 1007,4 hPa 0,0 l/m 6,8 km/h (2 Bft) O 90 -6,7 C 0,5 C
17.03.2013 16:01 2,4 C 51 % 1007,3 hPa 0,0 l/m 11,5 km/h (2 Bft) O-SO 112 -6,7 C -0,8 C
17.03.2013 16:06 2,3 C 51 % 1007,0 hPa 0,0 l/m 11,9 km/h (2 Bft) O-SO 112 -6,8 C -1,0 C
17.03.2013 16:11 2,4 C 50 % 1007,0 hPa 0,0 l/m 18,0 km/h (3 Bft) S-SO 157 -6,9 C -1,9 C
17.03.2013 16:16 2,4 C 51 % 1007,1 hPa 0,0 l/m 16,9 km/h (3 Bft) SO 135 -6,7 C -1,8 C
17.03.2013 16:21 2,4 C 50 % 1007,2 hPa 0,0 l/m 13,7 km/h (3 Bft) S-SO 157 -6,9 C -1,2 C
17.03.2013 16:26 2,4 C 51 % 1007,2 hPa 0,0 l/m 9,7 km/h (2 Bft) O 90 -6,7 C -0,4 C
17.03.2013 16:31 2,3 C 51 % 1007,3 hPa 0,0 l/m 14,8 km/h (3 Bft) SO 135 -6,8 C -1,5 C
17.03.2013 16:36 2,3 C 52 % 1007,1 hPa 0,0 l/m 6,8 km/h (2 Bft) O-SO 112 -6,5 C 0,3 C
17.03.2013 16:41 2,2 C 52 % 1007,1 hPa 0,0 l/m 6,8 km/h (2 Bft) O 90 -6,6 C 0,2 C
17.03.2013 16:46 2,2 C 52 % 1007,1 hPa 0,0 l/m 9,7 km/h (2 Bft) O-SO 112 -6,6 C -0,6 C
17.03.2013 16:51 2,2 C 53 % 1007,1 hPa 0,0 l/m 13,3 km/h (3 Bft) SO 135 -6,4 C -1,4 C
17.03.2013 16:56 2,2 C 53 % 1007,1 hPa 0,0 l/m 14,0 km/h (3 Bft) O-SO 112 -6,4 C -1,5 C
17.03.2013 17:01 2,1 C 53 % 1007,1 hPa 0,0 l/m 5,4 km/h (1 Bft) S-SO 157 -6,5 C 0,6 C
17.03.2013 17:06 2,1 C 54 % 1007,2 hPa 0,0 l/m 6,1 km/h (2 Bft) O-SO 112 -6,2 C 0,4 C
17.03.2013 17:11 2,1 C 55 % 1007,1 hPa 0,0 l/m 5,0 km/h (1 Bft) O 90 -6,0 C 0,8 C
17.03.2013 17:16 2,1 C 55 % 1007,0 hPa 0,0 l/m 12,2 km/h (2 Bft) O-NO 67 -6,0 C -1,3 C
17.03.2013 17:21 2,1 C 56 % 1007,0 hPa 0,0 l/m 9,7 km/h (2 Bft) O-SO 112 -5,7 C -0,7 C
17.03.2013 17:26 2,1 C 56 % 1007,0 hPa 0,0 l/m 7,2 km/h (2 Bft) O-SO 112 -5,7 C -0,0 C
17.03.2013 17:31 1,9 C 56 % 1007,0 hPa 0,0 l/m 7,6 km/h (2 Bft) SO 135 -5,9 C -0,4 C
17.03.2013 17:36 1,9 C 56 % 1006,9 hPa 0,0 l/m 10,1 km/h (2 Bft) SO 135 -5,9 C -1,1 C
17.03.2013 17:41 1,9 C 56 % 1006,8 hPa 0,0 l/m 9,4 km/h (2 Bft) O-NO 67 -5,9 C -0,9 C
17.03.2013 17:46 1,9 C 56 % 1006,8 hPa 0,0 l/m 18,7 km/h (3 Bft) O-SO 112 -5,9 C -2,7 C
17.03.2013 17:51 1,8 C 56 % 1006,8 hPa 0,0 l/m 7,6 km/h (2 Bft) SO 135 -6,0 C -0,5 C
17.03.2013 17:56 1,8 C 56 % 1006,9 hPa 0,0 l/m 10,1 km/h (2 Bft) NO 45 -6,0 C -1,2 C
17.03.2013 18:01 1,8 C 56 % 1006,9 hPa 0,0 l/m 10,4 km/h (2 Bft) O 90 -6,0 C -1,3 C
17.03.2013 18:06 1,8 C 56 % 1006,9 hPa 0,0 l/m 16,9 km/h (3 Bft) O-SO 112 -6,0 C -2,5 C
17.03.2013 18:11 1,6 C 57 % 1006,9 hPa 0,0 l/m 16,6 km/h (3 Bft) O 90 -6,0 C -2,7 C
17.03.2013 18:16 1,5 C 57 % 1007,0 hPa 0,0 l/m 13,7 km/h (3 Bft) S-SO 157 -6,1 C -2,3 C
17.03.2013 18:21 1,3 C 58 % 1007,0 hPa 0,0 l/m 4,0 km/h (1 Bft) S-SO 157 -6,0 C 1,3 C
17.03.2013 18:26 1,3 C 58 % 1006,9 hPa 0,0 l/m 9,7 km/h (2 Bft) O-SO 112 -6,0 C -1,7 C
17.03.2013 18:31 1,3 C 58 % 1006,9 hPa 0,0 l/m 9,7 km/h (2 Bft) O-SO 112 -6,0 C -1,7 C
17.03.2013 18:36 1,3 C 58 % 1006,9 hPa 0,0 l/m 6,1 km/h (2 Bft) SO 135 -6,0 C -0,6 C
17.03.2013 18:41 1,3 C 57 % 1006,7 hPa 0,0 l/m 13,0 km/h (3 Bft) O 90 -6,3 C -2,4 C
17.03.2013 18:46 1,3 C 58 % 1006,5 hPa 0,0 l/m 13,3 km/h (3 Bft) SO 135 -6,0 C -2,5 C
17.03.2013 18:51 1,3 C 58 % 1006,5 hPa 0,0 l/m 19,1 km/h (3 Bft) SO 135 -6,0 C -3,5 C
17.03.2013 18:56 1,3 C 58 % 1006,6 hPa 0,0 l/m 9,7 km/h (2 Bft) SO 135 -6,0 C -1,7 C
17.03.2013 19:01 1,3 C 58 % 1006,5 hPa 0,0 l/m 9,7 km/h (2 Bft) O-SO 112 -6,0 C -1,7 C
17.03.2013 19:06 1,1 C 58 % 1006,8 hPa 0,0 l/m 13,0 km/h (3 Bft) SO 135 -6,2 C -2,7 C
17.03.2013 19:11 1,1 C 59 % 1006,6 hPa 0,0 l/m 6,8 km/h (2 Bft) O-SO 112 -6,0 C -1,1 C
17.03.2013 19:16 1,0 C 59 % 1006,5 hPa 0,0 l/m 10,4 km/h (2 Bft) O 90 -6,1 C -2,2 C
17.03.2013 19:21 0,9 C 59 % 1006,8 hPa 0,0 l/m 19,1 km/h (3 Bft) O-SO 112 -6,2 C -4,0 C
17.03.2013 19:26 0,9 C 59 % 1006,6 hPa 0,0 l/m 10,1 km/h (2 Bft) SO 135 -6,2 C -2,3 C
17.03.2013 19:31 0,9 C 59 % 1006,7 hPa 0,0 l/m 17,6 km/h (3 Bft) SO 135 -6,2 C -3,7 C
17.03.2013 19:36 0,9 C 60 % 1006,6 hPa 0,0 l/m 6,8 km/h (2 Bft) O-SO 112 -6,0 C -1,3 C
17.03.2013 19:41 0,9 C 60 % 1006,4 hPa 0,0 l/m 9,4 km/h (2 Bft) SO 135 -6,0 C -2,1 C
17.03.2013 19:46 1,0 C 60 % 1006,5 hPa 0,0 l/m 11,2 km/h (2 Bft) O-SO 112 -5,9 C -2,4 C
17.03.2013 19:51 0,9 C 61 % 1006,4 hPa 0,0 l/m 11,9 km/h (2 Bft) O 90 -5,8 C -2,7 C
17.03.2013 19:56 0,9 C 61 % 1006,4 hPa 0,0 l/m 11,9 km/h (2 Bft) O-SO 112 -5,8 C -2,7 C
17.03.2013 20:01 0,9 C 61 % 1006,5 hPa 0,0 l/m 5,8 km/h (2 Bft) O 90 -5,8 C -0,9 C
17.03.2013 20:06 0,9 C 61 % 1006,4 hPa 0,0 l/m 11,2 km/h (2 Bft) O 90 -5,8 C -2,5 C
17.03.2013 20:11 0,9 C 62 % 1006,5 hPa 0,0 l/m 9,7 km/h (2 Bft) O-SO 112 -5,5 C -2,2 C
17.03.2013 20:16 0,9 C 62 % 1006,3 hPa 0,0 l/m 13,7 km/h (3 Bft) O 90 -5,5 C -3,1 C
17.03.2013 20:21 0,9 C 62 % 1006,4 hPa 0,0 l/m 18,4 km/h (3 Bft) SO 135 -5,5 C -3,9 C
17.03.2013 20:26 0,9 C 62 % 1006,3 hPa 0,0 l/m 9,4 km/h (2 Bft) SO 135 -5,5 C -2,1 C
17.03.2013 20:31 0,9 C 62 % 1006,3 hPa 0,0 l/m 7,6 km/h (2 Bft) SO 135 -5,5 C -1,6 C
17.03.2013 20:36 1,0 C 62 % 1006,4 hPa 0,0 l/m 20,2 km/h (4 Bft) O-SO 112 -5,4 C -4,0 C
17.03.2013 20:41 1,0 C 63 % 1006,4 hPa 0,0 l/m 11,5 km/h (2 Bft) O 90 -5,2 C -2,5 C
17.03.2013 20:46 0,9 C 63 % 1006,4 hPa 0,0 l/m 30,6 km/h (5 Bft) O-SO 112 -5,3 C -5,4 C
17.03.2013 20:51 0,9 C 63 % 1006,3 hPa 0,0 l/m 11,5 km/h (2 Bft) O-SO 112 -5,3 C -2,6 C
17.03.2013 20:56 0,9 C 63 % 1006,3 hPa 0,0 l/m 15,1 km/h (3 Bft) O-SO 112 -5,3 C -3,3 C
17.03.2013 21:01 0,9 C 63 % 1006,3 hPa 0,0 l/m 15,5 km/h (3 Bft) O-SO 112 -5,3 C -3,4 C
17.03.2013 21:06 0,9 C 63 % 1006,3 hPa 0,0 l/m 14,8 km/h (3 Bft) O-NO 67 -5,3 C -3,3 C
17.03.2013 21:11 0,9 C 63 % 1006,0 hPa 0,0 l/m 13,7 km/h (3 Bft) O 90 -5,3 C -3,1 C
17.03.2013 21:16 0,8 C 63 % 1006,0 hPa 0,0 l/m 16,9 km/h (3 Bft) O-NO 67 -5,4 C -3,8 C
17.03.2013 21:21 0,8 C 64 % 1006,2 hPa 0,0 l/m 23,4 km/h (4 Bft) S-SO 157 -5,2 C -4,7 C
17.03.2013 21:26 0,8 C 64 % 1006,0 hPa 0,0 l/m 9,4 km/h (2 Bft) SO 135 -5,2 C -2,2 C
17.03.2013 21:31 0,7 C 64 % 1005,9 hPa 0,0 l/m 15,8 km/h (3 Bft) O-SO 112 -5,3 C -3,7 C
17.03.2013 21:36 0,7 C 64 % 1006,0 hPa 0,0 l/m 10,8 km/h (2 Bft) O-SO 112 -5,3 C -2,7 C
17.03.2013 21:41 0,6 C 64 % 1005,9 hPa 0,0 l/m 8,3 km/h (2 Bft) SO 135 -5,4 C -2,1 C
17.03.2013 21:46 0,6 C 64 % 1005,9 hPa 0,0 l/m 14,4 km/h (3 Bft) O 90 -5,4 C -3,6 C
17.03.2013 21:51 0,6 C 64 % 1005,9 hPa 0,0 l/m 13,0 km/h (3 Bft) O-SO 112 -5,4 C -3,3 C
17.03.2013 21:56 0,6 C 64 % 1005,8 hPa 0,0 l/m 18,0 km/h (3 Bft) O 90 -5,4 C -4,2 C
17.03.2013 22:01 0,6 C 65 % 1005,8 hPa 0,0 l/m 12,2 km/h (2 Bft) O-SO 112 -5,2 C -3,1 C
17.03.2013 22:06 0,5 C 65 % 1005,6 hPa 0,0 l/m 14,8 km/h (3 Bft) O 90 -5,3 C -3,8 C
17.03.2013 22:11 0,5 C 65 % 1005,4 hPa 0,0 l/m 15,5 km/h (3 Bft) S-SO 157 -5,3 C -3,9 C
17.03.2013 22:16 0,5 C 65 % 1005,4 hPa 0,0 l/m 10,1 km/h (2 Bft) SO 135 -5,3 C -2,7 C
17.03.2013 22:21 0,5 C 65 % 1005,1 hPa 0,0 l/m 22,0 km/h (4 Bft) O 90 -5,3 C -4,9 C
17.03.2013 22:26 0,5 C 65 % 1005,2 hPa 0,0 l/m 23,0 km/h (4 Bft) S-SO 157 -5,3 C -5,0 C
17.03.2013 22:31 0,4 C 65 % 1005,1 hPa 0,0 l/m 28,1 km/h (4 Bft) O 90 -5,4 C -5,7 C
17.03.2013 22:36 0,4 C 65 % 1005,0 hPa 0,0 l/m 21,6 km/h (4 Bft) O-SO 112 -5,4 C -5,0 C
17.03.2013 22:41 0,4 C 65 % 1005,1 hPa 0,0 l/m 15,1 km/h (3 Bft) O-SO 112 -5,4 C -3,9 C
17.03.2013 22:46 0,4 C 66 % 1004,9 hPa 0,0 l/m 16,6 km/h (3 Bft) SO 135 -5,2 C -4,2 C
17.03.2013 22:51 0,4 C 66 % 1005,0 hPa 0,0 l/m 14,0 km/h (3 Bft) S-SO 157 -5,2 C -3,7 C
17.03.2013 22:56 0,3 C 66 % 1004,9 hPa 0,0 l/m 18,0 km/h (3 Bft) O-SO 112 -5,3 C -4,6 C
17.03.2013 23:01 0,3 C 66 % 1004,8 hPa 0,0 l/m 18,0 km/h (3 Bft) O-SO 112 -5,3 C -4,6 C
17.03.2013 23:06 0,3 C 67 % 1004,9 hPa 0,0 l/m 18,7 km/h (3 Bft) O-SO 112 -5,1 C -4,7 C
17.03.2013 23:11 0,3 C 67 % 1004,7 hPa 0,0 l/m 19,1 km/h (3 Bft) O-NO 67 -5,1 C -4,7 C
17.03.2013 23:16 0,2 C 67 % 1004,7 hPa 0,0 l/m 11,9 km/h (2 Bft) SO 135 -5,2 C -3,5 C
17.03.2013 23:21 0,2 C 67 % 1004,8 hPa 0,0 l/m 12,2 km/h (2 Bft) O 90 -5,2 C -3,6 C
17.03.2013 23:26 0,1 C 67 % 1004,8 hPa 0,0 l/m 7,2 km/h (2 Bft) SO 135 -5,3 C -2,4 C
17.03.2013 23:31 0,1 C 67 % 1004,5 hPa 0,0 l/m 14,8 km/h (3 Bft) O-SO 112 -5,3 C -4,3 C
17.03.2013 23:36 0,1 C 67 % 1004,6 hPa 0,0 l/m 12,6 km/h (3 Bft) O 90 -5,3 C -3,8 C
17.03.2013 23:41 0,1 C 67 % 1004,6 hPa 0,0 l/m 10,1 km/h (2 Bft) O-SO 112 -5,3 C -3,2 C
17.03.2013 23:46 -0,1 C 67 % 1004,5 hPa 0,0 l/m 15,5 km/h (3 Bft) O-SO 112 -5,5 C -4,6 C
17.03.2013 23:51 -0,1 C 67 % 1004,4 hPa 0,0 l/m 10,8 km/h (2 Bft) O-SO 112 -5,5 C -3,6 C
17.03.2013 23:56 -0,1 C 67 % 1004,3 hPa 0,0 l/m 12,6 km/h (3 Bft) SO 135 -5,5 C -4,1 C
_ Min-Zeit 06:01 15:46 23:56 - 18:21 - - 07:01 06:31
Minimum _ -3,2 C 50 % 1004,3 hPa - 4,0 km/h (1 Bft) - - -7,8 C -9,2 C
_ Max-Zeit 14:26 02:56 00:51 14:21 20:46 - - 23:06 13:16
Maximum _ 3,5 C 71 % 1014,9 hPa 1,0 l/m 30,6 km/h
O-SO (5 Bft)
- - -5,1 C 1,9 C
Durchschnitt _ 0,1 C 62 % 1009,7 hPa #1,0 l/m 13,5 km/h (3 Bft) SO - -6,4 C -3,8 C
(c) by David Heller